createdAt,value
2018-07-10T00:03:46.540Z,2.60
2018-07-10T00:11:08.620Z,3.77
2018-07-10T00:16:13.018Z,6.53
2018-07-10T00:21:17.136Z,4.00
2018-07-10T00:26:21.905Z,2.23
2018-07-10T00:31:25.664Z,2.67
2018-07-10T00:36:29.237Z,2.03
2018-07-10T00:41:34.328Z,3.10
2018-07-10T00:46:39.748Z,5.60
2018-07-10T00:51:43.860Z,5.93
2018-07-10T00:56:47.563Z,4.63
2018-07-10T01:01:51.283Z,5.27
2018-07-10T01:06:55.106Z,4.33
2018-07-10T01:11:58.692Z,4.43
2018-07-10T01:17:02.555Z,5.47
2018-07-10T01:22:06.065Z,3.57
2018-07-10T01:27:09.717Z,5.83
2018-07-10T01:32:13.260Z,3.20
2018-07-10T01:37:16.938Z,2.93
2018-07-10T01:42:20.550Z,5.03
2018-07-10T01:47:24.281Z,3.37
2018-07-10T01:52:28.530Z,5.30
2018-07-10T01:57:32.590Z,3.37
2018-07-10T02:02:36.192Z,3.53
2018-07-10T02:07:39.944Z,3.77
2018-07-10T02:12:43.584Z,6.83
2018-07-10T02:17:47.898Z,2.80
2018-07-10T02:22:51.516Z,3.70
2018-07-10T02:27:55.569Z,7.63
2018-07-10T02:32:59.244Z,6.80
2018-07-10T02:38:02.875Z,5.17
2018-07-10T02:43:07.121Z,6.37
2018-07-10T02:48:11.064Z,1.60
2018-07-10T02:53:14.871Z,2.47
2018-07-10T02:58:18.640Z,4.70
2018-07-10T03:03:22.211Z,7.77
2018-07-10T03:08:26.127Z,6.23
2018-07-10T03:13:29.888Z,3.37
2018-07-10T03:18:33.990Z,7.03
2018-07-10T03:23:37.570Z,5.47
2018-07-10T03:28:41.171Z,2.60
2018-07-10T03:33:44.731Z,6.47
2018-07-10T03:38:48.757Z,6.20
2018-07-10T03:43:52.280Z,6.10
2018-07-10T03:48:56.289Z,7.53
2018-07-10T03:54:01.056Z,5.00
2018-07-10T03:59:04.778Z,2.80
2018-07-10T04:04:08.516Z,4.40
2018-07-10T04:09:12.614Z,6.13
2018-07-10T04:14:17.210Z,4.40
2018-07-10T04:19:21.903Z,3.53
2018-07-10T04:24:27.519Z,6.13
2018-07-10T04:29:39.771Z,5.80
2018-07-10T04:34:43.372Z,3.13
2018-07-10T04:39:47.640Z,7.80
2018-07-10T04:45:10.147Z,7.20
2018-07-10T04:50:20.855Z,7.77
2018-07-10T04:55:24.633Z,6.23
2018-07-10T05:00:38.502Z,5.43
2018-07-10T05:05:42.135Z,4.67
2018-07-10T05:10:46.339Z,3.47
2018-07-10T05:15:53.508Z,5.30
2018-07-10T05:20:57.409Z,5.63
2018-07-10T05:26:00.996Z,3.77
2018-07-10T05:31:04.723Z,4.17
2018-07-10T05:36:08.839Z,3.70
2018-07-10T05:41:19.956Z,4.60
2018-07-10T05:46:25.239Z,5.33
2018-07-10T05:51:32.701Z,6.13
2018-07-10T05:56:36.801Z,5.57
2018-07-10T06:01:41.455Z,7.07
2018-07-10T06:06:45.929Z,3.60
2018-07-10T06:11:49.547Z,4.03
2018-07-10T06:16:53.613Z,5.73
2018-07-10T06:21:57.541Z,8.37
2018-07-10T06:27:08.589Z,3.87
2018-07-10T06:32:18.178Z,6.23
2018-07-10T06:37:31.515Z,9.60
2018-07-10T06:42:48.328Z,9.30
2018-07-10T06:47:51.813Z,9.07
2018-07-10T06:52:55.643Z,4.80
2018-07-10T06:57:59.984Z,8.97
2018-07-10T07:03:04.240Z,5.07
2018-07-10T07:08:07.767Z,7.50
2018-07-10T07:13:11.402Z,2.80
2018-07-10T07:18:14.966Z,7.60
2018-07-10T07:23:18.580Z,3.47
2018-07-10T07:28:22.267Z,4.60
2018-07-10T07:33:25.887Z,8.07
2018-07-10T07:38:29.603Z,4.00
2018-07-10T07:43:35.251Z,3.17
2018-07-10T07:48:38.851Z,6.23
2018-07-10T07:53:43.992Z,6.33
2018-07-10T07:58:47.895Z,7.97
2018-07-10T08:03:51.491Z,6.30
2018-07-10T08:08:55.162Z,12.00
2018-07-10T08:13:58.744Z,7.53
2018-07-10T08:19:03.432Z,5.67
2018-07-10T08:24:07.033Z,6.53
2018-07-10T08:29:12.110Z,6.33
2018-07-10T08:34:15.896Z,6.43
2018-07-10T08:39:20.218Z,6.47
2018-07-10T08:44:24.259Z,8.67
2018-07-10T08:49:32.618Z,5.13
2018-07-10T08:54:36.663Z,6.20
2018-07-10T08:59:40.323Z,6.07
2018-07-10T09:04:43.991Z,5.57
2018-07-10T09:09:47.585Z,7.17
2018-07-10T09:14:51.275Z,9.70
2018-07-10T09:19:58.265Z,6.13
2018-07-10T09:25:03.221Z,5.20
2018-07-10T09:30:07.101Z,7.30
2018-07-10T09:35:10.680Z,6.57
2018-07-10T09:40:14.361Z,7.63
2018-07-10T09:45:17.947Z,7.43
2018-07-10T09:50:22.532Z,7.33
2018-07-10T09:55:26.461Z,7.07
2018-07-10T10:00:41.367Z,11.37
2018-07-10T10:05:45.574Z,11.57
2018-07-10T10:10:49.218Z,9.60
2018-07-10T10:15:52.827Z,11.70
2018-07-10T10:20:56.712Z,11.40
2018-07-10T10:26:00.762Z,11.50
2018-07-10T10:31:04.611Z,10.40
2018-07-10T10:36:08.139Z,12.57
2018-07-10T10:41:13.562Z,13.03
2018-07-10T10:46:24.428Z,12.67
2018-07-10T10:51:28.526Z,12.80
2018-07-10T10:56:32.097Z,13.63
2018-07-10T11:01:35.744Z,12.20
2018-07-10T11:06:39.318Z,9.40
2018-07-10T11:11:42.920Z,6.60
2018-07-10T11:16:46.641Z,7.87
2018-07-10T11:22:00.998Z,6.97
2018-07-10T11:27:04.618Z,11.93
2018-07-10T11:32:08.276Z,11.27
2018-07-10T11:37:11.913Z,13.17
2018-07-10T11:42:15.574Z,7.80
2018-07-10T11:47:19.351Z,13.00
2018-07-10T11:52:22.964Z,9.17
2018-07-10T11:57:26.598Z,14.70
2018-07-10T12:02:44.980Z,10.97
2018-07-10T12:07:51.680Z,9.27
2018-07-10T12:12:55.881Z,11.23
2018-07-10T12:18:00.329Z,11.83
2018-07-10T12:23:05.721Z,8.63
2018-07-10T12:28:10.922Z,11.17
2018-07-10T12:33:15.550Z,14.33
2018-07-10T12:38:19.771Z,15.80
2018-07-10T12:43:23.911Z,11.70
2018-07-10T12:48:27.810Z,11.70
2018-07-10T12:53:31.679Z,11.77
2018-07-10T12:58:40.227Z,11.07
2018-07-10T13:03:44.554Z,15.87
2018-07-10T13:08:48.135Z,14.73
2018-07-10T13:13:51.765Z,11.80
2018-07-10T13:18:55.380Z,10.73
2018-07-10T13:24:00.832Z,13.93
2018-07-10T13:29:04.455Z,14.00
2018-07-10T13:34:08.143Z,11.83
2018-07-10T13:39:11.721Z,10.93
2018-07-10T13:44:15.632Z,16.30
2018-07-10T13:49:19.350Z,13.73
2018-07-10T13:54:22.971Z,12.13
2018-07-10T13:59:27.244Z,17.00
2018-07-10T14:04:30.872Z,13.57
2018-07-10T14:09:34.449Z,15.73
2018-07-10T14:14:38.574Z,14.80
2018-07-10T14:19:42.233Z,16.70
2018-07-10T14:24:45.933Z,16.83
2018-07-10T14:29:50.015Z,11.87
2018-07-10T14:34:55.015Z,22.97
2018-07-10T14:39:59.879Z,27.20
2018-07-10T14:45:05.787Z,36.20
2018-07-10T14:50:10.023Z,24.03
2018-07-10T14:55:13.768Z,20.43
2018-07-10T15:00:19.893Z,25.13
2018-07-10T15:05:23.460Z,23.40
2018-07-10T15:10:27.058Z,18.93
2018-07-10T15:15:31.815Z,19.37
2018-07-10T15:20:35.707Z,13.07
2018-07-10T15:25:39.735Z,14.73
2018-07-10T15:30:43.447Z,11.70
2018-07-10T15:35:47.306Z,14.00
2018-07-10T15:40:51.000Z,17.23
2018-07-10T15:45:54.838Z,13.33
2018-07-10T15:50:58.404Z,12.87
2018-07-10T15:56:02.249Z,13.13
2018-07-10T16:01:06.425Z,10.87
2018-07-10T16:06:10.176Z,12.27
2018-07-10T16:11:13.840Z,13.87
2018-07-10T16:16:21.669Z,13.97
2018-07-10T16:21:31.573Z,13.17
2018-07-10T16:26:36.950Z,12.40
2018-07-10T16:31:42.823Z,15.60
2018-07-10T16:36:46.433Z,11.47
2018-07-10T16:41:55.275Z,10.93
2018-07-10T16:47:07.201Z,9.50
2018-07-10T16:52:18.642Z,10.90
2018-07-10T16:57:22.253Z,10.40
2018-07-10T17:02:25.886Z,8.07
2018-07-10T17:07:30.468Z,7.07
2018-07-10T17:12:34.335Z,9.27
2018-07-10T17:17:37.932Z,7.63
2018-07-10T17:22:42.285Z,4.90
2018-07-10T17:27:47.293Z,4.40
2018-07-10T17:32:51.424Z,3.77
2018-07-10T17:37:55.093Z,4.63
2018-07-10T17:42:59.759Z,3.70
2018-07-10T17:48:03.336Z,4.17
2018-07-10T17:53:07.625Z,6.83
2018-07-10T17:58:11.307Z,3.47
2018-07-10T18:03:15.077Z,3.53
2018-07-10T18:08:18.942Z,6.50
2018-07-10T18:13:23.056Z,3.57
2018-07-10T18:18:27.204Z,1.47
2018-07-10T18:23:30.807Z,1.30
2018-07-10T18:28:34.372Z,1.07
2018-07-10T18:33:38.225Z,0.90
2018-07-10T18:38:41.938Z,1.30
2018-07-10T18:43:45.829Z,1.07
2018-07-10T18:48:49.492Z,1.50
2018-07-10T18:53:53.160Z,2.20
2018-07-10T18:59:05.476Z,4.00
2018-07-10T19:04:09.238Z,2.63
2018-07-10T19:09:23.989Z,3.20
2018-07-10T19:14:27.620Z,2.50
2018-07-10T19:19:31.281Z,2.63
2018-07-10T19:24:37.259Z,3.70
2018-07-10T19:29:48.155Z,3.33
2018-07-10T19:34:59.701Z,3.33
2018-07-10T19:40:04.715Z,3.17
2018-07-10T19:45:08.320Z,3.33
2018-07-10T19:50:15.951Z,2.50
2018-07-10T19:55:20.236Z,5.70
2018-07-10T20:00:30.385Z,3.47
2018-07-10T20:05:35.605Z,4.80
2018-07-10T20:10:47.350Z,4.03
2018-07-10T20:15:57.405Z,5.53
2018-07-10T20:21:09.687Z,6.20
2018-07-10T20:26:20.787Z,5.43
2018-07-10T20:32:02.282Z,7.23
2018-07-10T20:37:06.568Z,7.17
2018-07-10T20:42:10.201Z,9.27
2018-07-10T20:47:14.003Z,7.17
2018-07-10T20:52:25.084Z,8.87
2018-07-10T20:57:37.487Z,10.47
2018-07-10T21:05:00.987Z,8.77
2018-07-10T21:10:10.635Z,9.17
2018-07-10T21:15:21.622Z,9.57
2018-07-10T21:20:31.632Z,9.20
2018-07-10T21:25:45.206Z,9.97
2018-07-10T21:30:57.796Z,10.83
2018-07-10T21:41:49.424Z,10.50
2018-07-10T21:47:02.194Z,13.07
2018-07-10T21:52:05.886Z,14.10
2018-07-10T21:57:12.358Z,9.90
2018-07-10T22:02:16.454Z,13.80
2018-07-10T22:07:20.501Z,11.10
2018-07-10T22:12:25.835Z,11.97
2018-07-10T22:17:29.502Z,13.27
2018-07-10T22:22:33.585Z,11.87
2018-07-10T22:27:40.527Z,12.23
2018-07-10T22:32:49.270Z,12.43
2018-07-10T22:37:53.516Z,15.70
2018-07-10T22:43:00.515Z,11.70
2018-07-10T22:48:04.901Z,11.53
2018-07-10T22:53:08.545Z,10.60
2018-07-10T22:58:12.179Z,12.03
2018-07-10T23:03:16.602Z,12.90
2018-07-10T23:08:25.304Z,13.77
2018-07-10T23:13:29.571Z,14.27
2018-07-10T23:18:33.183Z,13.77
2018-07-10T23:23:36.997Z,13.23
2018-07-10T23:28:40.648Z,14.07
2018-07-10T23:33:45.409Z,15.33
2018-07-10T23:39:54.143Z,17.07
2018-07-10T23:45:00.528Z,15.70
2018-07-10T23:50:18.798Z,15.73
2018-07-10T23:55:22.692Z,19.83
